createdAt,value
2023-10-13T00:00:41.470Z,31.60
2023-10-13T00:03:16.349Z,29.05
2023-10-13T00:05:44.589Z,31.53
2023-10-13T00:08:12.847Z,29.48
2023-10-13T00:10:40.017Z,28.15
2023-10-13T00:13:17.512Z,26.55
2023-10-13T00:15:58.880Z,24.17
2023-10-13T00:18:28.528Z,28.00
2023-10-13T00:20:57.762Z,30.58
2023-10-13T00:23:28.039Z,26.33
2023-10-13T00:25:59.430Z,27.00
2023-10-13T00:28:59.241Z,24.42
2023-10-13T00:31:33.839Z,28.35
2023-10-13T00:34:19.382Z,27.75
2023-10-13T00:37:09.897Z,25.58
2023-10-13T00:39:46.538Z,28.42
2023-10-13T00:42:21.585Z,27.52
2023-10-13T00:44:55.597Z,24.75
2023-10-13T00:47:50.240Z,23.50
2023-10-13T00:50:18.872Z,28.15
2023-10-13T00:52:51.801Z,28.52
2023-10-13T00:55:24.041Z,27.42
2023-10-13T00:57:56.136Z,27.38
2023-10-13T01:00:29.502Z,28.85
2023-10-13T01:02:57.551Z,27.52
2023-10-13T01:05:27.830Z,23.33
2023-10-13T01:07:56.255Z,27.52
2023-10-13T01:10:33.702Z,27.58
2023-10-13T01:13:03.473Z,28.20
2023-10-13T01:15:31.666Z,25.27
2023-10-13T01:18:13.376Z,29.30
2023-10-13T01:20:47.230Z,26.52
2023-10-13T01:23:30.989Z,27.10
2023-10-13T01:25:59.383Z,28.38
2023-10-13T01:28:26.493Z,33.20
2023-10-13T01:30:55.799Z,28.75
2023-10-13T01:33:28.263Z,29.20
2023-10-13T01:36:00.574Z,27.00
2023-10-13T01:38:29.098Z,27.58
2023-10-13T01:41:00.585Z,25.58
2023-10-13T01:43:27.663Z,26.17
2023-10-13T01:45:58.693Z,26.13
2023-10-13T01:48:25.916Z,26.83
2023-10-13T01:51:01.039Z,24.92
2023-10-13T01:53:30.159Z,28.13
2023-10-13T01:55:58.654Z,27.70
2023-10-13T01:58:27.322Z,28.60
2023-10-13T02:00:54.546Z,29.67
2023-10-13T02:03:22.767Z,25.38
2023-10-13T02:05:50.895Z,27.63
2023-10-13T02:08:26.425Z,25.23
2023-10-13T02:10:56.729Z,23.92
2023-10-13T02:13:26.551Z,24.42
2023-10-13T02:15:58.962Z,25.23
2023-10-13T02:18:34.467Z,24.58
2023-10-13T02:21:13.711Z,26.38
2023-10-13T02:24:00.845Z,23.70
2023-10-13T02:26:39.821Z,25.73
2023-10-13T02:29:13.743Z,24.20
2023-10-13T02:31:43.952Z,23.27
2023-10-13T02:34:13.495Z,25.25
2023-10-13T02:36:50.929Z,21.70
2023-10-13T02:39:27.174Z,24.13
2023-10-13T02:41:57.006Z,22.65
2023-10-13T02:44:32.482Z,22.17
2023-10-13T02:47:00.185Z,21.80
2023-10-13T02:49:32.516Z,23.00
2023-10-13T02:52:05.839Z,20.75
2023-10-13T02:54:38.852Z,20.55
2023-10-13T02:57:06.218Z,22.75
2023-10-13T02:59:47.394Z,21.00
2023-10-13T03:02:19.288Z,23.13
2023-10-13T03:04:49.901Z,24.65
2023-10-13T03:07:23.826Z,23.73
2023-10-13T03:09:53.105Z,24.90
2023-10-13T03:12:21.294Z,20.30
2023-10-13T03:14:48.908Z,19.67
2023-10-13T03:17:18.370Z,18.50
2023-10-13T03:19:51.845Z,19.38
2023-10-13T03:22:20.026Z,17.55
2023-10-13T03:24:47.965Z,18.85
2023-10-13T03:27:23.762Z,18.10
2023-10-13T03:29:56.366Z,19.75
2023-10-13T03:32:27.958Z,16.35
2023-10-13T03:34:55.443Z,19.42
2023-10-13T03:37:39.721Z,19.30
2023-10-13T03:40:22.237Z,17.70
2023-10-13T03:43:11.487Z,20.42
2023-10-13T03:45:45.081Z,20.25
2023-10-13T03:48:29.353Z,18.25
2023-10-13T03:51:08.098Z,21.73
2023-10-13T03:53:38.053Z,20.30
2023-10-13T03:56:15.863Z,22.50
2023-10-13T03:58:47.115Z,23.83
2023-10-13T04:01:18.684Z,22.30
2023-10-13T04:04:05.150Z,20.90
2023-10-13T04:09:32.383Z,20.55
2023-10-13T04:12:04.781Z,21.02
2023-10-13T04:14:59.150Z,20.33
2023-10-13T04:17:31.112Z,20.67
2023-10-13T04:20:08.635Z,21.88
2023-10-13T04:22:48.199Z,22.15
2023-10-13T04:25:47.352Z,19.48
2023-10-13T04:28:35.810Z,19.15
2023-10-13T04:31:25.889Z,19.10
2023-10-13T04:33:57.121Z,18.02
2023-10-13T04:36:27.288Z,19.27
2023-10-13T04:39:00.936Z,18.45
2023-10-13T04:41:59.256Z,18.30
2023-10-13T04:44:41.710Z,19.90
2023-10-13T04:47:09.434Z,18.20
2023-10-13T04:49:44.599Z,19.55
2023-10-13T04:52:12.359Z,19.70
2023-10-13T04:54:49.116Z,20.35
2023-10-13T04:57:48.257Z,17.23
2023-10-13T05:00:18.442Z,17.65
2023-10-13T05:03:06.700Z,18.45
2023-10-13T05:06:08.699Z,16.70
2023-10-13T05:08:54.179Z,15.63
2023-10-13T05:11:44.026Z,18.33
2023-10-13T05:14:29.581Z,12.57
2023-10-13T05:17:15.048Z,16.03
2023-10-13T05:20:00.421Z,12.50
2023-10-13T05:22:46.276Z,14.10
2023-10-13T05:25:32.273Z,13.48
2023-10-13T05:28:26.734Z,13.05
2023-10-13T05:31:19.566Z,11.07
2023-10-13T05:34:05.229Z,10.00
2023-10-13T05:36:50.642Z,11.13
2023-10-13T05:39:38.060Z,10.60
2023-10-13T05:42:23.659Z,13.88
2023-10-13T05:44:57.553Z,11.27
2023-10-13T05:47:43.311Z,10.55
2023-10-13T05:50:20.605Z,9.18
2023-10-13T05:52:57.714Z,11.68
2023-10-13T05:55:48.599Z,12.18
2023-10-13T05:58:35.648Z,11.20
2023-10-13T06:01:21.270Z,11.40
2023-10-13T06:04:06.889Z,10.32
2023-10-13T06:06:52.324Z,7.97
2023-10-13T06:09:48.544Z,8.80
2023-10-13T06:12:34.073Z,7.93
2023-10-13T06:15:19.860Z,9.77
2023-10-13T06:18:05.786Z,9.52
2023-10-13T06:20:51.390Z,6.82
2023-10-13T06:23:37.205Z,6.93
2023-10-13T06:26:22.662Z,7.18
2023-10-13T06:28:50.590Z,7.03
2023-10-13T06:31:24.219Z,7.18
2023-10-13T06:33:56.714Z,6.45
2023-10-13T06:36:24.234Z,5.82
2023-10-13T06:39:17.042Z,5.25
2023-10-13T06:41:44.956Z,5.60
2023-10-13T06:44:17.089Z,8.20
2023-10-13T06:46:45.336Z,7.45
2023-10-13T06:49:14.757Z,5.20
2023-10-13T06:51:41.940Z,7.10
2023-10-13T06:54:12.350Z,6.97
2023-10-13T06:56:41.177Z,7.07
2023-10-13T06:59:09.525Z,8.88
2023-10-13T07:01:43.583Z,6.35
2023-10-13T07:04:17.945Z,7.35
2023-10-13T07:06:51.910Z,6.93
2023-10-13T07:09:37.818Z,7.65
2023-10-13T07:12:23.666Z,6.90
2023-10-13T07:14:54.075Z,9.00
2023-10-13T07:17:27.604Z,9.77
2023-10-13T07:19:57.025Z,9.93
2023-10-13T07:22:24.736Z,9.48
2023-10-13T07:24:53.602Z,7.55
2023-10-13T07:27:24.303Z,8.52
2023-10-13T07:30:15.579Z,10.10
2023-10-13T07:32:52.523Z,10.25
2023-10-13T07:35:21.876Z,7.68
2023-10-13T07:37:50.110Z,10.45
2023-10-13T07:40:25.990Z,8.75
2023-10-13T07:45:25.945Z,11.52
2023-10-13T07:47:53.280Z,11.65
2023-10-13T07:50:26.387Z,8.98
2023-10-13T07:53:19.860Z,8.50
2023-10-13T07:55:56.792Z,10.27
2023-10-13T07:58:26.241Z,10.85
2023-10-13T08:01:08.036Z,8.13
2023-10-13T08:03:45.363Z,12.70
2023-10-13T08:06:20.623Z,11.82
2023-10-13T08:08:54.896Z,13.15
2023-10-13T08:11:25.451Z,7.90
2023-10-13T08:14:08.123Z,12.95
2023-10-13T08:16:54.311Z,10.75
2023-10-13T08:19:33.058Z,14.95
2023-10-13T08:22:01.300Z,14.50
2023-10-13T08:24:40.379Z,11.90
2023-10-13T08:27:27.244Z,12.00
2023-10-13T08:29:57.114Z,16.33
2023-10-13T08:32:26.729Z,14.23
2023-10-13T08:35:04.092Z,14.82
2023-10-13T08:37:47.212Z,18.08
2023-10-13T08:40:33.702Z,18.70
2023-10-13T08:43:04.447Z,17.55
2023-10-13T08:45:32.862Z,11.93
2023-10-13T08:48:14.197Z,13.43
2023-10-13T08:50:53.261Z,13.13
2023-10-13T08:53:29.152Z,14.38
2023-10-13T08:58:55.884Z,13.05
2023-10-13T09:01:46.770Z,10.27
2023-10-13T09:04:36.738Z,11.23
2023-10-13T09:07:07.195Z,12.48
2023-10-13T09:09:41.013Z,11.27
2023-10-13T09:12:20.032Z,10.20
2023-10-13T09:15:06.975Z,12.25
2023-10-13T09:17:52.336Z,14.25
2023-10-13T09:20:36.213Z,12.45
2023-10-13T09:23:25.043Z,10.43
2023-10-13T09:25:59.411Z,12.63
2023-10-13T09:28:30.149Z,11.77
2023-10-13T09:30:58.294Z,12.15
2023-10-13T09:33:51.479Z,13.85
2023-10-13T09:36:18.579Z,11.38
2023-10-13T09:39:02.249Z,11.80
2023-10-13T09:41:33.527Z,10.55
2023-10-13T09:44:00.795Z,15.02
2023-10-13T09:46:31.900Z,15.07
2023-10-13T09:49:09.320Z,12.38
2023-10-13T09:51:36.665Z,12.07
2023-10-13T09:54:34.346Z,15.45
2023-10-13T09:57:17.162Z,12.27
2023-10-13T09:59:53.889Z,10.55
2023-10-13T10:02:27.173Z,10.27
2023-10-13T10:05:12.487Z,10.65
2023-10-13T10:07:40.889Z,12.63
2023-10-13T10:10:09.946Z,11.73
2023-10-13T10:12:51.489Z,14.82
2023-10-13T10:15:45.132Z,10.43
2023-10-13T10:18:26.679Z,14.27
2023-10-13T10:21:08.699Z,12.73
2023-10-13T10:23:44.369Z,15.45
2023-10-13T10:26:21.110Z,13.32
2023-10-13T10:28:48.593Z,15.02
2023-10-13T10:31:21.285Z,14.55
2023-10-13T10:33:51.892Z,14.23
2023-10-13T10:36:32.600Z,14.48
2023-10-13T10:39:05.731Z,17.52
2023-10-13T10:41:53.523Z,14.38
2023-10-13T10:44:26.653Z,14.20
2023-10-13T10:46:58.404Z,13.68
2023-10-13T10:49:29.189Z,14.70
2023-10-13T10:52:07.456Z,13.88
2023-10-13T10:54:34.470Z,13.50
2023-10-13T10:57:18.787Z,14.68
2023-10-13T10:59:47.777Z,14.07
2023-10-13T11:02:19.379Z,17.10
2023-10-13T11:04:52.586Z,14.18
2023-10-13T11:07:28.888Z,14.50
2023-10-13T11:10:07.801Z,14.75
2023-10-13T11:12:37.734Z,14.05
2023-10-13T11:15:15.059Z,16.92
2023-10-13T11:17:49.637Z,14.25
2023-10-13T11:20:26.749Z,14.82
2023-10-13T11:22:54.302Z,17.23
2023-10-13T11:25:24.911Z,10.20
2023-10-13T11:27:52.133Z,15.52
2023-10-13T11:30:38.033Z,17.70
2023-10-13T11:33:11.222Z,13.43
2023-10-13T11:35:56.398Z,12.85
2023-10-13T11:38:50.544Z,12.88
2023-10-13T11:41:20.221Z,16.00
2023-10-13T11:44:12.948Z,18.17
2023-10-13T11:46:56.485Z,13.55
2023-10-13T11:49:29.647Z,11.85
2023-10-13T11:52:09.930Z,12.60
2023-10-13T11:54:42.904Z,15.95
2023-10-13T11:57:10.548Z,11.95
2023-10-13T11:59:45.740Z,12.32
2023-10-13T12:02:28.524Z,15.85
2023-10-13T12:04:58.319Z,14.75
2023-10-13T12:07:28.420Z,15.40
2023-10-13T12:09:55.822Z,13.02
2023-10-13T12:12:28.210Z,15.57
2023-10-13T12:14:56.998Z,16.33
2023-10-13T12:17:37.467Z,17.15
2023-10-13T12:20:11.481Z,16.90
2023-10-13T12:22:52.426Z,13.70
2023-10-13T12:25:39.934Z,16.30
2023-10-13T12:28:24.307Z,17.17
2023-10-13T12:30:54.484Z,13.98
2023-10-13T12:33:42.053Z,12.48
2023-10-13T12:36:15.645Z,15.10
2023-10-13T12:38:49.203Z,14.40
2023-10-13T12:41:38.070Z,13.35
2023-10-13T12:44:26.175Z,15.32
2023-10-13T12:47:12.983Z,15.18
2023-10-13T12:49:43.224Z,14.70
2023-10-13T12:52:17.595Z,18.65
2023-10-13T12:54:48.678Z,16.55
2023-10-13T12:57:18.870Z,13.57
2023-10-13T12:59:46.074Z,15.90
2023-10-13T13:02:17.002Z,17.77
2023-10-13T13:04:48.660Z,13.27
2023-10-13T13:07:15.768Z,15.57
2023-10-13T13:09:42.877Z,13.38
2023-10-13T13:12:13.689Z,19.75
2023-10-13T13:14:47.186Z,17.50
2023-10-13T13:17:14.780Z,17.00
2023-10-13T13:19:42.277Z,14.35
2023-10-13T13:22:13.275Z,16.58
2023-10-13T13:24:45.613Z,15.07
2023-10-13T13:27:20.539Z,18.02
2023-10-13T13:29:47.803Z,17.53
2023-10-13T13:32:25.636Z,12.88
2023-10-13T13:35:04.793Z,17.13
2023-10-13T13:37:32.813Z,15.35
2023-10-13T13:40:14.808Z,14.18
2023-10-13T13:42:46.199Z,15.15
2023-10-13T13:45:28.715Z,13.18
2023-10-13T13:47:56.273Z,16.08
2023-10-13T13:50:26.359Z,14.48
2023-10-13T13:52:57.108Z,20.60
2023-10-13T13:55:30.917Z,16.42
2023-10-13T13:57:58.407Z,17.70
2023-10-13T14:00:38.500Z,17.60
2023-10-13T14:03:32.237Z,16.15
2023-10-13T14:06:00.842Z,17.17
2023-10-13T14:08:28.601Z,20.67
2023-10-13T14:11:13.915Z,15.73
2023-10-13T14:13:50.482Z,19.73
2023-10-13T14:16:19.325Z,15.18
2023-10-13T14:18:51.999Z,19.27
2023-10-13T14:21:20.317Z,17.30
2023-10-13T14:23:48.760Z,14.98
2023-10-13T14:26:22.862Z,17.20
2023-10-13T14:29:02.831Z,14.82
2023-10-13T14:31:33.859Z,15.13
2023-10-13T14:34:01.103Z,16.27
2023-10-13T14:36:29.929Z,17.15
2023-10-13T14:38:57.739Z,18.20
2023-10-13T14:41:24.961Z,18.40
2023-10-13T14:43:52.111Z,17.30
2023-10-13T14:46:24.246Z,17.42
2023-10-13T14:48:55.008Z,20.70
2023-10-13T14:51:22.438Z,17.85
2023-10-13T14:53:53.437Z,16.10
2023-10-13T14:56:26.174Z,19.98
2023-10-13T14:58:55.150Z,13.43
2023-10-13T15:01:25.805Z,17.48
2023-10-13T15:03:57.178Z,16.95
2023-10-13T15:06:26.925Z,15.40
2023-10-13T15:08:56.985Z,16.48
2023-10-13T15:11:28.638Z,17.52
2023-10-13T15:13:57.340Z,22.13
2023-10-13T15:16:28.280Z,19.00
2023-10-13T15:18:55.947Z,18.88
2023-10-13T15:21:31.672Z,15.60
2023-10-13T15:24:04.517Z,17.38
2023-10-13T15:26:32.305Z,17.27
2023-10-13T15:29:02.017Z,16.55
2023-10-13T15:31:35.138Z,18.13
2023-10-13T15:34:16.388Z,15.32
2023-10-13T15:36:45.100Z,21.13
2023-10-13T15:39:16.503Z,14.35
2023-10-13T15:41:43.846Z,15.35
2023-10-13T15:44:14.463Z,18.10
2023-10-13T15:49:15.491Z,16.27
2023-10-13T15:51:43.380Z,18.50
2023-10-13T15:54:19.590Z,18.30
2023-10-13T15:56:49.202Z,17.02
2023-10-13T15:59:16.798Z,16.73
2023-10-13T16:01:47.918Z,13.45
2023-10-13T16:04:16.433Z,15.23
2023-10-13T16:06:48.323Z,12.73
2023-10-13T16:09:16.433Z,13.65
2023-10-13T16:11:44.256Z,11.10
2023-10-13T16:14:11.944Z,11.75
2023-10-13T16:16:39.660Z,10.27
2023-10-13T16:19:07.870Z,9.20
2023-10-13T16:21:35.190Z,10.18
2023-10-13T16:24:02.410Z,11.32
2023-10-13T16:26:31.798Z,8.00
2023-10-13T16:28:59.801Z,8.10
2023-10-13T16:31:30.009Z,8.45
2023-10-13T16:34:00.137Z,8.80
2023-10-13T16:36:27.622Z,9.98
2023-10-13T16:38:59.028Z,9.77
2023-10-13T16:41:27.986Z,11.88
2023-10-13T16:43:55.137Z,12.50
2023-10-13T16:46:22.458Z,12.15
2023-10-13T16:48:49.722Z,16.75
2023-10-13T16:51:17.504Z,14.07
2023-10-13T16:53:50.867Z,11.15
2023-10-13T16:56:18.477Z,17.23
2023-10-13T16:58:46.341Z,14.52
2023-10-13T17:01:14.657Z,16.52
2023-10-13T17:03:47.839Z,14.95
2023-10-13T17:06:15.089Z,16.85
2023-10-13T17:08:42.186Z,13.63
2023-10-13T17:11:17.336Z,20.13
2023-10-13T17:13:52.356Z,14.57
2023-10-13T17:16:23.518Z,17.20
2023-10-13T17:18:53.122Z,11.75
2023-10-13T17:21:23.635Z,11.45
2023-10-13T17:23:52.326Z,12.43
2023-10-13T17:26:20.881Z,13.20
2023-10-13T17:28:48.803Z,16.20
2023-10-13T17:31:16.139Z,12.23
2023-10-13T17:33:43.651Z,9.98
2023-10-13T17:36:12.264Z,12.73
2023-10-13T17:38:40.183Z,13.85
2023-10-13T17:41:12.544Z,12.70
2023-10-13T17:43:39.740Z,10.77
2023-10-13T17:46:12.339Z,10.43
2023-10-13T17:48:40.746Z,13.65
2023-10-13T17:51:10.535Z,12.82
2023-10-13T17:53:41.453Z,13.30
2023-10-13T17:56:14.225Z,13.43
2023-10-13T17:58:42.382Z,15.00
2023-10-13T18:01:18.654Z,15.75
2023-10-13T18:03:52.332Z,14.52
2023-10-13T18:06:24.641Z,16.45
2023-10-13T18:08:55.716Z,14.10
2023-10-13T18:11:26.258Z,13.38
2023-10-13T18:13:53.705Z,15.10
2023-10-13T18:16:23.237Z,16.48
2023-10-13T18:18:56.968Z,14.30
2023-10-13T18:21:24.974Z,14.85
2023-10-13T18:23:54.121Z,14.00
2023-10-13T18:26:21.305Z,17.73
2023-10-13T18:28:53.205Z,16.38
2023-10-13T18:31:20.268Z,17.80
2023-10-13T18:33:47.500Z,17.70
2023-10-13T18:36:25.682Z,18.13
2023-10-13T18:38:53.178Z,15.02
2023-10-13T18:41:20.781Z,16.75
2023-10-13T18:43:48.804Z,12.90
2023-10-13T18:46:17.605Z,15.77
2023-10-13T18:48:46.552Z,17.58
2023-10-13T18:51:20.155Z,17.40
2023-10-13T18:53:49.369Z,14.70
2023-10-13T18:56:21.686Z,17.00
2023-10-13T18:58:55.121Z,12.73
2023-10-13T19:01:28.485Z,15.93
2023-10-13T19:04:01.339Z,13.23
2023-10-13T19:06:32.490Z,14.45
2023-10-13T19:09:00.541Z,16.75
2023-10-13T19:11:27.586Z,10.63
2023-10-13T19:13:54.649Z,15.80
2023-10-13T19:16:27.029Z,12.40
2023-10-13T19:19:00.055Z,18.90
2023-10-13T19:21:27.855Z,14.30
2023-10-13T19:23:55.618Z,15.63
2023-10-13T19:26:25.779Z,14.00
2023-10-13T19:28:55.256Z,13.35
2023-10-13T19:31:30.571Z,15.45
2023-10-13T19:34:11.318Z,15.10
2023-10-13T19:36:38.672Z,14.10
2023-10-13T19:39:09.253Z,19.67
2023-10-13T19:41:37.643Z,16.02
2023-10-13T19:44:06.301Z,12.02
2023-10-13T19:46:38.091Z,16.05
2023-10-13T19:49:06.383Z,15.38
2023-10-13T19:51:34.668Z,16.55
2023-10-13T19:54:03.767Z,19.83
2023-10-13T19:56:33.648Z,14.05
2023-10-13T19:59:02.703Z,16.98
2023-10-13T20:01:34.521Z,14.68
2023-10-13T20:04:08.056Z,14.75
2023-10-13T20:06:36.729Z,15.63
2023-10-13T20:09:10.514Z,15.48
2023-10-13T20:11:37.884Z,13.85
2023-10-13T20:14:05.096Z,13.52
2023-10-13T20:16:32.537Z,14.75
2023-10-13T20:19:00.476Z,14.77
2023-10-13T20:21:30.698Z,15.05
2023-10-13T20:24:02.683Z,17.98
2023-10-13T20:26:44.040Z,14.60
2023-10-13T20:29:18.839Z,15.00
2023-10-13T20:31:50.634Z,13.93
2023-10-13T20:34:24.883Z,16.35
2023-10-13T20:36:56.189Z,12.60
2023-10-13T20:39:31.614Z,13.07
2023-10-13T20:42:05.446Z,15.45
2023-10-13T20:44:38.491Z,12.07
2023-10-13T20:47:11.835Z,14.75
2023-10-13T20:49:44.728Z,13.93
2023-10-13T20:52:11.989Z,11.45
2023-10-13T20:54:39.966Z,13.82
2023-10-13T20:57:09.439Z,10.95
2023-10-13T20:59:40.653Z,12.45
2023-10-13T21:02:11.071Z,11.18
2023-10-13T21:04:38.357Z,10.38
2023-10-13T21:07:06.480Z,9.10
2023-10-13T21:09:34.238Z,8.30
2023-10-13T21:12:05.879Z,9.02
2023-10-13T21:14:35.244Z,9.43
2023-10-13T21:17:05.353Z,8.18
2023-10-13T21:19:33.694Z,8.90
2023-10-13T21:22:00.733Z,7.03
2023-10-13T21:24:27.760Z,8.57
2023-10-13T21:26:54.763Z,9.88
2023-10-13T21:29:22.040Z,8.40
2023-10-13T21:31:49.341Z,7.45
2023-10-13T21:34:16.588Z,6.97
2023-10-13T21:36:43.785Z,6.82
2023-10-13T21:39:12.955Z,8.30
2023-10-13T21:41:40.028Z,8.57
2023-10-13T21:44:08.188Z,6.88
2023-10-13T21:46:39.059Z,7.38
2023-10-13T21:49:06.354Z,8.50
2023-10-13T21:51:38.202Z,8.50
2023-10-13T21:54:08.797Z,7.97
2023-10-13T21:56:37.076Z,11.93
2023-10-13T21:59:04.149Z,9.80
2023-10-13T22:01:31.769Z,2.92
2023-10-13T22:04:09.755Z,3.50
2023-10-13T22:06:42.361Z,1.75
2023-10-13T22:09:19.467Z,2.08
2023-10-13T22:11:46.964Z,2.00
2023-10-13T22:14:17.488Z,2.90
2023-10-13T22:16:45.121Z,3.95
2023-10-13T22:19:13.450Z,2.85
2023-10-13T22:21:41.753Z,3.50
2023-10-13T22:24:11.992Z,3.70
2023-10-13T22:26:40.279Z,2.80
2023-10-13T22:29:07.917Z,4.43
2023-10-13T22:31:35.298Z,3.50
2023-10-13T22:34:06.050Z,4.95
2023-10-13T22:36:33.450Z,4.28
2023-10-13T22:39:01.760Z,2.97
2023-10-13T22:41:34.406Z,5.25
2023-10-13T22:44:06.654Z,5.05
2023-10-13T22:46:35.507Z,6.88
2023-10-13T22:49:02.853Z,4.57
2023-10-13T22:51:30.572Z,5.43
2023-10-13T22:53:58.275Z,3.13
2023-10-13T22:56:25.284Z,7.40
2023-10-13T22:58:52.268Z,5.35
2023-10-13T23:01:19.430Z,8.85
2023-10-13T23:03:57.109Z,4.13
2023-10-13T23:06:31.437Z,5.03
2023-10-13T23:09:11.220Z,4.95
2023-10-13T23:11:40.151Z,6.05
2023-10-13T23:14:07.922Z,7.55
2023-10-13T23:16:35.598Z,4.32
2023-10-13T23:19:06.886Z,5.72
2023-10-13T23:21:34.297Z,7.43
2023-10-13T23:24:01.475Z,3.17
2023-10-13T23:26:29.803Z,4.25
2023-10-13T23:28:56.908Z,5.30
2023-10-13T23:31:26.307Z,4.13
2023-10-13T23:33:54.943Z,6.78
2023-10-13T23:36:22.700Z,7.95
2023-10-13T23:39:01.730Z,6.38
2023-10-13T23:41:29.327Z,3.92
2023-10-13T23:43:57.226Z,4.25
2023-10-13T23:46:25.497Z,4.47
2023-10-13T23:48:56.337Z,5.15
2023-10-13T23:51:28.161Z,3.40
2023-10-13T23:54:01.832Z,8.13
2023-10-13T23:56:29.097Z,3.78
2023-10-13T23:59:05.009Z,4.15
